Etusivu
METAR-TAF:

METAR-TAF

Lentoasemat :

Perry Stokes Airport

Trinidad, Colorado, Yhdysvallat

Leveyspiiri: 37-16N, Pituuspiiri: 104-26W, korkeus merenpinnasta: 1756 m

Tämänhetkinen sää

Tämä raportti tehtiin 1 tunti ja 8 minuuttia sitten, kello 15.54 UTC
Tuuli 8 kn lännestä
Lämpötila 2°C
Kosteus 64%
Ilmanpaine 1018 hPa
Näkyvyys: 16.1 km
selkeää

METAR: KTAD 181554Z AUTO 26008KT 10SM CLR 02/M04 A3005 RMK AO2 SLP159 T00221044

Aika: 10:02 (17:02 UTC)


TAF: puuttuu

Säähavainnot ja -ennusteet yli 4000 lentoasemalta (METAR- ja TAF-raportit).

Käytössä olevat sääasemat on merkitty karttaan keltaisilla ja punaisilla pisteillä.

Aseta hiiri pisteen päälle nähdäksesi sääaseman nimen.

Klikkaa sitten nähdäksesi säähavainnot ja -ennusteet.

Kartan vaihtaminen: klikkaa mustalla rastilla varustettuja vihreitä pisteitä, niin voit zoomata sisään; viivalla varustettua vihreää pistettä, niin voit zoomata ulos tai vihreitä nuolia, niin pääset viereisille kartoille.


METAR-TAF: